createdAt,value
2023-04-21T00:04:17.867Z,61.88
2023-04-21T00:09:21.309Z,56.55
2023-04-21T00:14:25.615Z,57.55
2023-04-21T00:19:28.878Z,64.60
2023-04-21T00:24:31.580Z,57.60
2023-04-21T00:29:35.613Z,60.60
2023-04-21T00:34:38.365Z,63.45
2023-04-21T00:39:41.783Z,65.35
2023-04-21T00:44:46.012Z,61.70
2023-04-21T00:49:49.432Z,73.57
2023-04-21T00:54:52.167Z,67.15
2023-04-21T00:59:56.490Z,61.03
2023-04-21T01:05:00.577Z,68.38
2023-04-21T01:10:03.485Z,65.97
2023-04-21T01:15:09.708Z,67.72
2023-04-21T01:20:15.073Z,71.28
2023-04-21T01:25:22.437Z,65.72
2023-04-21T01:35:27.989Z,61.67
2023-04-21T01:40:32.178Z,74.32
2023-04-21T01:45:37.319Z,75.33
2023-04-21T01:50:40.203Z,71.60
2023-04-21T01:55:44.381Z,75.90
2023-04-21T02:00:47.262Z,70.63
2023-04-21T02:05:51.480Z,65.05
2023-04-21T02:10:55.576Z,71.10
2023-04-21T02:16:12.069Z,77.15
2023-04-21T02:21:16.434Z,81.20
2023-04-21T02:26:20.900Z,73.25
2023-04-21T02:31:23.919Z,74.32
2023-04-21T02:36:26.747Z,69.78
2023-04-21T02:41:34.800Z,78.70
2023-04-21T02:46:41.087Z,73.90
2023-04-21T02:51:43.784Z,66.25
2023-04-21T02:56:47.918Z,61.85
2023-04-21T03:01:50.952Z,80.25
2023-04-21T03:06:54.503Z,72.57
2023-04-21T03:11:58.595Z,75.05
2023-04-21T03:17:01.538Z,73.30
2023-04-21T03:22:06.655Z,82.72
2023-04-21T03:27:11.215Z,71.75
2023-04-21T03:32:14.040Z,72.63
2023-04-21T03:37:17.304Z,69.30
2023-04-21T03:42:22.151Z,69.18
2023-04-21T03:47:26.111Z,78.68
2023-04-21T03:52:28.979Z,79.18
2023-04-21T03:57:33.113Z,81.40
2023-04-21T04:02:36.032Z,74.15
2023-04-21T04:07:38.944Z,76.95
2023-04-21T04:12:42.965Z,78.13
2023-04-21T04:17:45.818Z,76.05
2023-04-21T04:22:48.792Z,75.65
2023-04-21T04:27:53.658Z,73.07
2023-04-21T04:32:58.035Z,67.25
2023-04-21T04:38:00.834Z,73.63
2023-04-21T04:43:05.009Z,63.53
2023-04-21T04:48:08.250Z,72.13
2023-04-21T04:53:12.289Z,72.50
2023-04-21T04:58:17.294Z,70.65
2023-04-21T05:03:20.269Z,74.60
2023-04-21T05:08:23.189Z,65.03
2023-04-21T05:13:27.530Z,69.38
2023-04-21T05:18:30.721Z,74.43
2023-04-21T05:23:34.108Z,72.13
2023-04-21T05:28:38.303Z,81.65
2023-04-21T05:33:42.600Z,69.13
2023-04-21T05:38:46.184Z,63.05
2023-04-21T05:43:50.531Z,72.85
2023-04-21T05:48:53.303Z,65.05
2023-04-21T05:53:58.603Z,71.25
2023-04-21T05:59:03.734Z,74.90
2023-04-21T06:04:07.500Z,80.55
2023-04-21T06:09:11.174Z,71.55
2023-04-21T06:14:15.346Z,67.22
2023-04-21T06:19:19.318Z,74.47
2023-04-21T06:24:25.311Z,76.28
2023-04-21T06:29:29.791Z,78.45
2023-04-21T06:34:32.623Z,74.80
2023-04-21T06:39:37.409Z,82.35
2023-04-21T06:44:41.604Z,68.63
2023-04-21T06:49:44.343Z,75.78
2023-04-21T06:54:48.775Z,68.47
2023-04-21T06:59:53.301Z,78.80
2023-04-21T07:04:57.361Z,67.22
2023-04-21T07:10:01.785Z,71.57
2023-04-21T07:15:09.055Z,82.13
2023-04-21T07:20:12.101Z,81.00
2023-04-21T07:25:15.121Z,73.05
2023-04-21T07:30:19.366Z,74.28
2023-04-21T07:35:22.401Z,68.18
2023-04-21T07:40:26.337Z,75.72
2023-04-21T07:45:30.660Z,79.68
2023-04-21T07:50:33.519Z,70.68
2023-04-21T07:55:37.426Z,76.82
2023-04-21T08:00:41.650Z,73.53
2023-04-21T08:05:46.101Z,70.13
2023-04-21T08:10:49.529Z,64.57
2023-04-21T08:15:55.421Z,65.93
2023-04-21T08:21:00.168Z,78.95
2023-04-21T08:26:06.882Z,71.38
2023-04-21T08:31:11.324Z,75.47
2023-04-21T08:41:21.480Z,70.05
2023-04-21T08:46:25.956Z,66.45
2023-04-21T08:51:31.627Z,58.17
2023-04-21T08:56:34.571Z,59.97
2023-04-21T09:02:10.031Z,54.10
2023-04-21T09:07:32.088Z,60.53
2023-04-21T09:12:35.170Z,59.75
2023-04-21T09:17:39.520Z,58.38
2023-04-21T09:22:42.956Z,55.45
2023-04-21T09:27:46.649Z,54.17
2023-04-21T09:32:50.858Z,49.38
2023-04-21T09:37:54.504Z,49.70
2023-04-21T09:42:58.813Z,50.95
2023-04-21T09:48:08.963Z,54.55
2023-04-21T09:53:17.109Z,51.50
2023-04-21T10:03:28.725Z,45.33
2023-04-21T10:08:32.127Z,60.47
2023-04-21T10:13:36.708Z,53.25
2023-04-21T10:18:45.705Z,49.35
2023-04-21T10:23:50.412Z,51.22
2023-04-21T10:28:57.409Z,48.72
2023-04-21T10:34:17.591Z,43.03
2023-04-21T10:39:28.549Z,43.50
2023-04-21T10:44:32.480Z,41.13
2023-04-21T10:49:40.065Z,42.80
2023-04-21T10:54:46.105Z,42.05
2023-04-21T10:59:50.809Z,36.35
2023-04-21T11:04:56.310Z,39.28
2023-04-21T11:10:02.562Z,40.03
2023-04-21T11:15:10.583Z,28.80
2023-04-21T11:20:17.358Z,35.90
2023-04-21T11:25:20.235Z,34.25
2023-04-21T11:30:23.907Z,35.65
2023-04-21T11:35:28.813Z,39.15
2023-04-21T11:40:45.836Z,37.90
2023-04-21T11:45:51.706Z,38.10
2023-04-21T11:50:57.714Z,32.90
2023-04-21T11:56:01.372Z,32.05
2023-04-21T12:01:09.078Z,39.05
2023-04-21T12:06:23.029Z,55.00
2023-04-21T12:11:28.072Z,30.55
2023-04-21T12:16:30.903Z,30.98
2023-04-21T12:21:38.629Z,26.98
2023-04-21T12:26:44.473Z,42.13
2023-04-21T12:31:47.385Z,28.45
2023-04-21T12:36:52.003Z,22.08
2023-04-21T12:41:55.640Z,19.33
2023-04-21T12:46:59.396Z,17.27
2023-04-21T12:52:07.687Z,17.88
2023-04-21T12:57:11.724Z,18.48
2023-04-21T13:02:14.709Z,16.48
2023-04-21T13:07:21.366Z,19.95
2023-04-21T13:12:26.678Z,16.63
2023-04-21T13:17:29.503Z,19.50
2023-04-21T13:22:35.616Z,15.65
2023-04-21T13:27:39.999Z,16.33
2023-04-21T13:32:44.159Z,21.42
2023-04-21T13:37:49.276Z,15.20
2023-04-21T13:42:52.109Z,13.50
2023-04-21T13:47:55.499Z,15.82
2023-04-21T13:52:59.687Z,13.68
2023-04-21T13:58:02.709Z,10.93
2023-04-21T14:03:05.936Z,12.65
2023-04-21T14:08:10.782Z,10.57
2023-04-21T14:13:26.897Z,9.88
2023-04-21T14:18:38.359Z,15.32
2023-04-21T14:23:42.585Z,8.73
2023-04-21T14:28:45.890Z,11.02
2023-04-21T14:33:50.082Z,6.43
2023-04-21T14:38:54.863Z,8.75
2023-04-21T14:44:00.398Z,10.47
2023-04-21T14:49:03.542Z,13.75
2023-04-21T14:54:08.184Z,9.68
2023-04-21T14:59:11.809Z,8.40
2023-04-21T15:04:15.424Z,11.10
2023-04-21T15:09:20.831Z,9.45
2023-04-21T15:14:24.504Z,7.63
2023-04-21T15:19:27.251Z,8.35
2023-04-21T15:24:31.874Z,10.52
2023-04-21T15:29:35.889Z,14.90
2023-04-21T15:34:39.467Z,7.18
2023-04-21T15:39:43.568Z,7.15
2023-04-21T15:44:47.130Z,9.00
2023-04-21T15:49:51.105Z,8.02
2023-04-21T15:54:55.639Z,7.63
2023-04-21T15:59:58.528Z,9.65
2023-04-21T16:05:01.646Z,10.70
2023-04-21T16:10:06.684Z,8.68
2023-04-21T16:20:19.677Z,8.93
2023-04-21T16:25:25.386Z,8.30
2023-04-21T16:30:28.282Z,6.25
2023-04-21T16:35:31.809Z,12.13
2023-04-21T16:40:35.998Z,13.20
2023-04-21T16:45:39.944Z,6.63
2023-04-21T16:50:42.774Z,7.00
2023-04-21T16:55:47.094Z,5.97
2023-04-21T17:00:50.024Z,10.73
2023-04-21T17:05:53.751Z,6.03
2023-04-21T17:10:58.902Z,6.68
2023-04-21T17:16:02.729Z,9.05
2023-04-21T17:21:06.805Z,7.75
2023-04-21T17:26:13.124Z,12.45
2023-04-21T17:31:16.546Z,9.18
2023-04-21T17:36:20.336Z,9.77
2023-04-21T17:41:24.964Z,10.25
2023-04-21T17:46:28.013Z,10.10
2023-04-21T17:51:31.844Z,14.73
2023-04-21T17:56:36.147Z,14.07
2023-04-21T18:01:39.157Z,10.43
2023-04-21T18:06:42.037Z,9.10
2023-04-21T18:11:46.417Z,8.90
2023-04-21T18:16:50.051Z,15.27
2023-04-21T18:21:53.064Z,8.95
2023-04-21T18:26:58.020Z,6.50
2023-04-21T18:32:01.255Z,3.03
2023-04-21T18:37:05.019Z,4.20
2023-04-21T18:42:10.994Z,14.93
2023-04-21T18:47:15.301Z,4.70
2023-04-21T18:52:18.363Z,5.85
2023-04-21T18:57:22.622Z,14.43
2023-04-21T19:02:25.809Z,5.20
2023-04-21T19:07:28.671Z,11.85
2023-04-21T19:12:34.121Z,5.07
2023-04-21T19:17:37.089Z,5.03
2023-04-21T19:22:40.096Z,14.93
2023-04-21T19:27:46.697Z,7.80
2023-04-21T19:32:49.619Z,16.60
2023-04-21T19:37:52.394Z,18.08
2023-04-21T19:42:58.533Z,12.13
2023-04-21T19:48:01.846Z,10.75
2023-04-21T19:53:04.958Z,12.70
2023-04-21T19:58:09.257Z,44.88
2023-04-21T20:03:12.369Z,32.72
2023-04-21T20:08:16.270Z,17.52
2023-04-21T20:13:21.053Z,9.88
2023-04-21T20:18:23.819Z,11.05
2023-04-21T20:23:26.845Z,9.73
2023-04-21T20:28:32.599Z,10.95
2023-04-21T20:33:35.581Z,16.08
2023-04-21T20:38:38.855Z,31.50
2023-04-21T20:43:43.747Z,49.08
2023-04-21T20:48:46.731Z,27.70
2023-04-21T20:53:49.448Z,12.93
2023-04-21T20:58:54.013Z,16.80
2023-04-21T21:03:57.388Z,18.33
2023-04-21T21:09:01.827Z,12.10
2023-04-21T21:14:06.207Z,15.15
2023-04-21T21:19:09.356Z,10.73
2023-04-21T21:24:12.483Z,7.97
2023-04-21T21:29:16.663Z,12.75
2023-04-21T21:34:19.400Z,13.85
2023-04-21T21:39:22.346Z,12.13
2023-04-21T21:44:26.620Z,13.15
2023-04-21T21:49:29.454Z,12.02
2023-04-21T21:54:32.217Z,11.50
2023-04-21T21:59:36.715Z,13.95
2023-04-21T22:04:39.995Z,10.57
2023-04-21T22:09:42.724Z,11.80
2023-04-21T22:14:47.112Z,13.07
2023-04-21T22:19:49.897Z,12.38
2023-04-21T22:24:52.622Z,14.35
2023-04-21T22:29:56.804Z,14.95
2023-04-21T22:35:00.408Z,12.38
2023-04-21T22:40:04.707Z,15.77
2023-04-21T22:45:10.459Z,14.75
2023-04-21T22:50:14.781Z,13.48
2023-04-21T22:55:17.843Z,15.00
2023-04-21T23:00:21.971Z,14.25
2023-04-21T23:05:24.672Z,9.65
2023-04-21T23:10:29.309Z,9.45
2023-04-21T23:15:33.487Z,9.95
2023-04-21T23:20:36.382Z,8.65
2023-04-21T23:25:40.708Z,11.93
2023-04-21T23:30:44.914Z,9.18
2023-04-21T23:35:48.099Z,7.07
2023-04-21T23:40:51.008Z,14.75
2023-04-21T23:45:55.172Z,9.75
2023-04-21T23:50:58.009Z,8.85
2023-04-21T23:56:00.789Z,9.18
